KELK

Elk City Regional Business Airport

Elk City, Oklahoma, USA
METAR KELK 241215Z AUTO 03007KT 1/2SM FG OVC003 01/01 A2987 RMK AO2 LTG DSNT S T00110010
Observed Flight Rules
Feb-24 @ 12:15 UTC (7 minutes ago) Instrument Flight Rules
Wind Visibility Clouds Conditions
30° at 7 knots 1/2 miles
  • Overcast at 300' AGL
  • Fog
Temperatures Readings
Current 1°C / 34°F
Dewpoint 1°C / 34°F
Humidity 100%
Altimeter 29.87" Hg
Pressure 1012 hPa
Elevation 610
METAR KELK 241215Z AUTO 03007KT 1/2SM FG OVC003 01/01 A2987 RMK AO2 LTG DSNT S T00110010
Observed Flight Rules
Feb-24 @ 12:15 UTC
(7 minutes ago)
LIFR
Wind Visibility
30° at 7 knots 1/2 miles
Clouds
  • Overcast at 300' AGL
Conditions
  • Fog
Temperature Dewpoint
1°C / 34°F 1°C / 34°F
Humidity Altimeter Pressure
100% 29.87" Hg 1012 hPa